createdAt,value
2023-08-07T00:00:30.475Z,99.90
2023-08-07T00:02:58.766Z,99.90
2023-08-07T00:05:27.018Z,99.90
2023-08-07T00:07:55.162Z,99.90
2023-08-07T00:10:23.144Z,99.90
2023-08-07T00:12:51.214Z,99.90
2023-08-07T00:15:19.571Z,99.90
2023-08-07T00:17:49.169Z,99.90
2023-08-07T00:20:17.208Z,99.90
2023-08-07T00:22:45.333Z,99.90
2023-08-07T00:25:13.325Z,99.90
2023-08-07T00:27:41.601Z,99.90
2023-08-07T00:30:10.680Z,99.90
2023-08-07T00:32:38.672Z,99.90
2023-08-07T00:35:09.348Z,99.90
2023-08-07T00:37:37.409Z,99.90
2023-08-07T00:40:06.192Z,99.90
2023-08-07T00:42:34.287Z,99.90
2023-08-07T00:45:02.295Z,99.90
2023-08-07T00:47:32.327Z,99.90
2023-08-07T00:50:01.150Z,99.90
2023-08-07T00:52:30.638Z,99.90
2023-08-07T00:54:58.677Z,99.90
2023-08-07T00:57:28.036Z,99.90
2023-08-07T00:59:56.223Z,99.90
2023-08-07T01:02:24.286Z,99.90
2023-08-07T01:04:53.249Z,99.90
2023-08-07T01:07:21.264Z,99.90
2023-08-07T01:09:50.706Z,99.90
2023-08-07T01:12:22.191Z,99.90
2023-08-07T01:14:57.346Z,99.90
2023-08-07T01:17:26.650Z,99.90
2023-08-07T01:19:54.801Z,99.90
2023-08-07T01:22:24.301Z,99.90
2023-08-07T01:24:53.125Z,99.90
2023-08-07T01:27:34.462Z,99.90
2023-08-07T01:30:09.563Z,99.90
2023-08-07T01:32:45.405Z,99.90
2023-08-07T01:35:16.207Z,99.90
2023-08-07T01:37:47.581Z,99.90
2023-08-07T01:40:16.432Z,99.90
2023-08-07T01:42:46.726Z,99.90
2023-08-07T01:45:14.743Z,99.90
2023-08-07T01:47:42.751Z,99.90
2023-08-07T01:50:11.028Z,99.90
2023-08-07T01:52:38.980Z,99.90
2023-08-07T01:55:09.134Z,99.90
2023-08-07T01:57:37.322Z,99.90
2023-08-07T02:00:05.907Z,99.90
2023-08-07T02:02:34.184Z,99.90
2023-08-07T02:05:02.364Z,99.90
2023-08-07T02:07:30.395Z,99.90
2023-08-07T02:09:59.135Z,99.90
2023-08-07T02:12:30.741Z,99.90
2023-08-07T02:14:58.666Z,99.90
2023-08-07T02:17:27.179Z,99.90
2023-08-07T02:19:55.425Z,99.90
2023-08-07T02:22:23.526Z,99.90
2023-08-07T02:24:51.722Z,99.90
2023-08-07T02:27:20.300Z,99.90
2023-08-07T02:29:49.595Z,99.90
2023-08-07T02:32:17.682Z,99.90
2023-08-07T02:34:46.446Z,99.90
2023-08-07T02:37:14.542Z,99.90
2023-08-07T02:39:42.489Z,99.90
2023-08-07T02:42:10.771Z,99.90
2023-08-07T02:44:38.905Z,99.90
2023-08-07T02:47:08.378Z,99.90
2023-08-07T02:49:36.321Z,99.90
2023-08-07T02:52:04.703Z,99.90
2023-08-07T02:54:32.896Z,99.90
2023-08-07T02:57:01.301Z,99.90
2023-08-07T02:59:29.317Z,99.90
2023-08-07T03:01:57.513Z,99.90
2023-08-07T03:04:26.846Z,99.90
2023-08-07T03:06:56.531Z,99.90
2023-08-07T03:09:24.894Z,99.90
2023-08-07T03:11:53.001Z,99.90
2023-08-07T03:14:20.935Z,99.90
2023-08-07T03:16:49.077Z,99.90
2023-08-07T03:19:17.198Z,99.90
2023-08-07T03:21:46.678Z,99.90
2023-08-07T03:24:14.892Z,99.90
2023-08-07T03:26:43.059Z,99.90
2023-08-07T03:29:11.131Z,99.90
2023-08-07T03:31:39.242Z,99.90
2023-08-07T03:34:07.262Z,99.90
2023-08-07T03:36:35.370Z,99.90
2023-08-07T03:39:04.866Z,99.90
2023-08-07T03:41:33.005Z,99.90
2023-08-07T03:44:01.129Z,99.90
2023-08-07T03:46:29.088Z,99.90
2023-08-07T03:48:57.182Z,99.90
2023-08-07T03:51:25.281Z,99.90
2023-08-07T03:53:53.376Z,99.90
2023-08-07T03:56:22.664Z,99.90
2023-08-07T03:58:51.336Z,99.90
2023-08-07T04:01:19.493Z,99.90
2023-08-07T04:03:49.249Z,99.90
2023-08-07T04:06:17.814Z,99.90
2023-08-07T04:08:47.708Z,99.90
2023-08-07T04:11:15.776Z,99.90
2023-08-07T04:13:45.326Z,99.90
2023-08-07T04:16:13.353Z,99.90
2023-08-07T04:18:41.441Z,99.90
2023-08-07T04:21:09.557Z,99.90
2023-08-07T04:23:37.735Z,99.90
2023-08-07T04:26:05.723Z,99.90
2023-08-07T04:28:33.758Z,99.90
2023-08-07T04:31:03.979Z,99.90
2023-08-07T04:33:31.986Z,99.90
2023-08-07T04:35:59.988Z,99.90
2023-08-07T04:38:28.086Z,99.90
2023-08-07T04:40:56.150Z,99.90
2023-08-07T04:43:24.089Z,99.90
2023-08-07T04:45:52.073Z,99.90
2023-08-07T04:48:22.212Z,99.90
2023-08-07T04:50:51.074Z,99.90
2023-08-07T04:53:19.003Z,99.90
2023-08-07T04:55:47.092Z,99.90
2023-08-07T04:58:18.219Z,99.90
2023-08-07T05:00:46.214Z,99.90
2023-08-07T05:03:14.446Z,99.90
2023-08-07T05:05:43.878Z,99.90
2023-08-07T05:08:11.876Z,99.90
2023-08-07T05:10:39.864Z,99.90
2023-08-07T05:13:08.009Z,99.90
2023-08-07T05:15:36.080Z,99.90
2023-08-07T05:18:04.022Z,99.90
2023-08-07T05:20:32.024Z,99.90
2023-08-07T05:23:01.403Z,99.90
2023-08-07T05:25:29.331Z,99.90
2023-08-07T05:27:57.497Z,99.90
2023-08-07T05:30:25.737Z,99.90
2023-08-07T05:32:53.781Z,99.90
2023-08-07T05:35:21.927Z,99.90
2023-08-07T05:37:49.867Z,99.90
2023-08-07T05:40:19.479Z,99.90
2023-08-07T05:42:47.406Z,99.90
2023-08-07T05:45:15.592Z,99.90
2023-08-07T05:47:43.922Z,99.90
2023-08-07T05:50:12.089Z,99.90
2023-08-07T05:52:40.164Z,99.90
2023-08-07T05:55:09.220Z,99.90
2023-08-07T05:57:38.675Z,99.90
2023-08-07T06:00:08.975Z,99.90
2023-08-07T06:02:37.156Z,99.90
2023-08-07T06:05:05.783Z,99.90
2023-08-07T06:07:33.753Z,99.90
2023-08-07T06:10:01.740Z,99.90
2023-08-07T06:12:29.840Z,99.90
2023-08-07T06:14:59.463Z,99.90
2023-08-07T06:17:27.470Z,99.90
2023-08-07T06:19:55.631Z,99.90
2023-08-07T06:22:24.452Z,99.90
2023-08-07T06:24:52.548Z,99.90
2023-08-07T06:27:23.307Z,99.90
2023-08-07T06:29:51.308Z,99.90
2023-08-07T06:32:20.925Z,99.90
2023-08-07T06:34:49.127Z,99.90
2023-08-07T06:37:17.226Z,99.90
2023-08-07T06:39:47.273Z,99.90
2023-08-07T06:42:17.293Z,99.90
2023-08-07T06:44:45.432Z,99.90
2023-08-07T06:47:13.428Z,99.90
2023-08-07T06:49:42.725Z,99.90
2023-08-07T06:52:11.024Z,99.90
2023-08-07T06:54:38.975Z,99.90
2023-08-07T06:57:07.623Z,99.90
2023-08-07T06:59:35.836Z,99.90
2023-08-07T07:02:03.827Z,99.90
2023-08-07T07:04:31.833Z,99.90
2023-08-07T07:07:01.599Z,99.90
2023-08-07T07:09:30.124Z,99.90
2023-08-07T07:11:58.535Z,99.90
2023-08-07T07:14:26.637Z,99.90
2023-08-07T07:16:54.650Z,99.90
2023-08-07T07:19:22.655Z,99.90
2023-08-07T07:21:51.075Z,99.90
2023-08-07T07:24:20.338Z,99.90
2023-08-07T07:26:48.358Z,99.90
2023-08-07T07:29:16.325Z,99.90
2023-08-07T07:31:44.338Z,99.90
2023-08-07T07:34:12.604Z,99.90
2023-08-07T07:36:40.517Z,99.90
2023-08-07T07:39:08.568Z,99.90
2023-08-07T07:41:38.024Z,99.90
2023-08-07T07:44:06.250Z,99.90
2023-08-07T07:46:34.571Z,99.90
2023-08-07T07:49:04.724Z,99.90
2023-08-07T07:51:33.501Z,99.90
2023-08-07T07:56:38.470Z,99.90
2023-08-07T07:59:09.082Z,99.90
2023-08-07T08:01:37.848Z,99.90
2023-08-07T08:04:06.434Z,99.90
2023-08-07T08:06:34.499Z,99.90
2023-08-07T08:09:05.546Z,99.90
2023-08-07T08:11:34.092Z,99.90
2023-08-07T08:14:04.091Z,99.90
2023-08-07T08:16:32.158Z,99.90
2023-08-07T08:19:00.146Z,99.90
2023-08-07T08:21:28.271Z,99.90
2023-08-07T08:23:56.196Z,99.90
2023-08-07T08:26:24.314Z,99.90
2023-08-07T08:28:52.487Z,99.90
2023-08-07T08:31:22.595Z,99.90
2023-08-07T08:33:50.857Z,99.90
2023-08-07T08:36:18.832Z,99.90
2023-08-07T08:38:49.307Z,99.90
2023-08-07T08:41:18.942Z,99.90
2023-08-07T08:43:48.918Z,99.90
2023-08-07T08:46:17.819Z,99.90
2023-08-07T08:48:53.813Z,99.90
2023-08-07T08:51:22.904Z,99.90
2023-08-07T08:53:52.539Z,99.90
2023-08-07T08:56:20.606Z,99.90
2023-08-07T08:58:49.338Z,99.90
2023-08-07T09:01:19.212Z,99.90
2023-08-07T09:03:49.056Z,99.90
2023-08-07T09:06:17.593Z,99.90
2023-08-07T09:08:46.992Z,99.90
2023-08-07T09:11:15.820Z,99.90
2023-08-07T09:13:47.302Z,99.90
2023-08-07T09:16:16.136Z,99.90
2023-08-07T09:18:44.498Z,99.90
2023-08-07T09:21:17.686Z,99.90
2023-08-07T09:23:45.786Z,99.90
2023-08-07T09:26:13.955Z,99.90
2023-08-07T09:28:42.654Z,99.90
2023-08-07T09:31:10.771Z,99.90
2023-08-07T09:33:41.881Z,99.90
2023-08-07T09:36:09.967Z,99.90
2023-08-07T09:38:39.423Z,99.90
2023-08-07T09:41:07.394Z,99.90
2023-08-07T09:43:36.925Z,99.90
2023-08-07T09:46:05.794Z,99.90
2023-08-07T09:48:35.263Z,99.90
2023-08-07T09:51:04.857Z,99.90
2023-08-07T09:53:33.499Z,99.90
2023-08-07T09:56:03.305Z,99.90
2023-08-07T09:58:31.641Z,99.90
2023-08-07T10:01:01.449Z,99.90
2023-08-07T10:03:29.863Z,99.90
2023-08-07T10:05:58.355Z,99.90
2023-08-07T10:08:26.981Z,99.90
2023-08-07T10:10:55.650Z,99.90
2023-08-07T10:13:38.353Z,99.90
2023-08-07T10:16:07.700Z,99.90
2023-08-07T10:18:36.084Z,99.90
2023-08-07T10:21:07.321Z,99.90
2023-08-07T10:23:37.683Z,99.90
2023-08-07T10:26:08.288Z,99.90
2023-08-07T10:28:42.422Z,99.90
2023-08-07T10:31:13.130Z,99.90
2023-08-07T10:33:42.813Z,99.90
2023-08-07T10:36:12.233Z,99.90
2023-08-07T10:38:40.251Z,99.90
2023-08-07T10:41:12.225Z,99.90
2023-08-07T10:43:43.473Z,99.20
2023-08-07T10:46:13.528Z,98.00
2023-08-07T10:48:43.071Z,98.00
2023-08-07T10:51:14.233Z,96.50
2023-08-07T10:53:45.107Z,96.90
2023-08-07T10:56:17.566Z,95.10
2023-08-07T10:58:51.882Z,93.90
2023-08-07T11:01:22.071Z,92.50
2023-08-07T11:03:54.690Z,92.50
2023-08-07T11:06:28.446Z,92.20
2023-08-07T11:08:56.461Z,92.80
2023-08-07T11:11:24.523Z,93.10
2023-08-07T11:13:53.971Z,93.40
2023-08-07T11:16:22.781Z,93.40
2023-08-07T11:18:51.472Z,93.80
2023-08-07T11:21:20.828Z,94.90
2023-08-07T11:23:49.015Z,95.50
2023-08-07T11:26:18.413Z,95.10
2023-08-07T11:28:46.646Z,95.10
2023-08-07T11:31:16.478Z,95.50
2023-08-07T11:33:44.674Z,96.10
2023-08-07T11:36:13.748Z,96.10
2023-08-07T11:38:44.194Z,96.80
2023-08-07T11:41:13.720Z,97.00
2023-08-07T11:43:42.627Z,97.00
2023-08-07T11:46:12.237Z,97.40
2023-08-07T11:48:43.709Z,97.40
2023-08-07T11:51:11.903Z,97.90
2023-08-07T11:53:42.523Z,97.70
2023-08-07T11:56:11.793Z,97.90
2023-08-07T11:58:42.042Z,97.80
2023-08-07T12:01:13.012Z,97.80
2023-08-07T12:03:44.823Z,98.10
2023-08-07T12:06:12.817Z,97.60
2023-08-07T12:08:42.431Z,97.80
2023-08-07T12:11:12.124Z,98.30
2023-08-07T12:13:41.145Z,98.10
2023-08-07T12:16:09.924Z,97.80
2023-08-07T12:18:39.809Z,97.60
2023-08-07T12:21:10.308Z,96.80
2023-08-07T12:23:38.773Z,96.60
2023-08-07T12:26:08.303Z,96.30
2023-08-07T12:28:36.612Z,95.70
2023-08-07T12:31:04.983Z,96.40
2023-08-07T12:33:33.244Z,95.50
2023-08-07T12:36:02.220Z,95.30
2023-08-07T12:38:31.639Z,95.90
2023-08-07T12:40:59.910Z,95.60
2023-08-07T12:43:28.256Z,95.00
2023-08-07T12:46:31.710Z,94.70
2023-08-07T12:48:44.296Z,95.40
2023-08-07T12:51:12.250Z,95.20
2023-08-07T12:53:41.748Z,96.30
2023-08-07T12:56:09.758Z,96.50
2023-08-07T12:58:37.972Z,96.60
2023-08-07T13:01:10.981Z,96.50
2023-08-07T13:03:39.126Z,97.40
2023-08-07T13:06:08.679Z,97.00
2023-08-07T13:08:36.820Z,97.50
2023-08-07T13:11:09.566Z,97.00
2023-08-07T13:13:39.520Z,97.00
2023-08-07T13:16:07.802Z,96.00
2023-08-07T13:18:35.985Z,95.00
2023-08-07T13:21:04.047Z,94.20
2023-08-07T13:23:32.067Z,93.30
2023-08-07T13:26:00.034Z,93.40
2023-08-07T13:28:29.495Z,93.90
2023-08-07T13:30:59.288Z,93.80
2023-08-07T13:33:27.727Z,93.90
2023-08-07T13:35:55.658Z,94.60
2023-08-07T13:38:23.744Z,94.70
2023-08-07T13:40:52.294Z,95.30
2023-08-07T13:43:20.697Z,96.10
2023-08-07T13:45:52.011Z,96.50
2023-08-07T13:48:20.052Z,96.50
2023-08-07T13:50:48.309Z,95.70
2023-08-07T13:53:16.457Z,95.80
2023-08-07T13:55:45.490Z,95.40
2023-08-07T13:58:16.784Z,95.50
2023-08-07T14:00:45.020Z,95.30
2023-08-07T14:03:14.922Z,95.20
2023-08-07T14:05:43.416Z,94.30
2023-08-07T14:08:12.428Z,94.00
2023-08-07T14:10:42.654Z,94.20
2023-08-07T14:13:12.536Z,94.60
2023-08-07T14:15:40.998Z,95.30
2023-08-07T14:18:08.973Z,95.40
2023-08-07T14:20:51.774Z,96.10
2023-08-07T14:23:26.656Z,95.20
2023-08-07T14:25:54.695Z,94.80
2023-08-07T14:28:22.760Z,94.70
2023-08-07T14:30:51.292Z,94.60
2023-08-07T14:33:19.404Z,94.30
2023-08-07T14:35:48.780Z,95.00
2023-08-07T14:38:16.904Z,94.90
2023-08-07T14:40:44.882Z,95.00
2023-08-07T14:43:12.872Z,95.30
2023-08-07T14:45:40.966Z,96.00
2023-08-07T14:48:09.102Z,95.90
2023-08-07T14:50:37.106Z,96.50
2023-08-07T14:53:06.619Z,96.40
2023-08-07T14:55:34.731Z,97.00
2023-08-07T14:58:02.827Z,97.50
2023-08-07T15:00:32.400Z,98.40
2023-08-07T15:03:00.463Z,98.10
2023-08-07T15:05:28.586Z,98.00
2023-08-07T15:07:56.587Z,97.10
2023-08-07T15:10:25.885Z,97.90
2023-08-07T15:12:54.072Z,97.50
2023-08-07T15:15:22.132Z,97.30
2023-08-07T15:17:50.289Z,97.00
2023-08-07T15:20:21.016Z,96.80
2023-08-07T15:22:50.169Z,96.90
2023-08-07T15:25:18.953Z,97.40
2023-08-07T15:27:48.395Z,97.40
2023-08-07T15:30:16.422Z,97.60
2023-08-07T15:32:44.553Z,97.70
2023-08-07T15:35:12.938Z,97.10
2023-08-07T15:37:40.878Z,97.60
2023-08-07T15:40:10.511Z,97.60
2023-08-07T15:42:38.678Z,97.90
2023-08-07T15:45:09.513Z,98.10
2023-08-07T15:47:37.538Z,98.70
2023-08-07T15:50:06.350Z,98.90
2023-08-07T15:52:34.463Z,98.60
2023-08-07T15:55:02.799Z,98.60
2023-08-07T15:57:31.803Z,99.10
2023-08-07T15:59:59.798Z,99.50
2023-08-07T16:02:29.280Z,99.60
2023-08-07T16:04:58.001Z,99.20
2023-08-07T16:07:27.744Z,99.60
2023-08-07T16:09:55.729Z,99.90
2023-08-07T16:12:23.706Z,99.90
2023-08-07T16:14:52.063Z,99.90
2023-08-07T16:17:20.050Z,99.90
2023-08-07T16:19:49.563Z,99.90
2023-08-07T16:22:17.731Z,99.90
2023-08-07T16:24:46.990Z,99.90
2023-08-07T16:27:15.014Z,99.90
2023-08-07T16:29:43.151Z,99.90
2023-08-07T16:32:11.226Z,99.90
2023-08-07T16:34:39.357Z,99.90
2023-08-07T16:37:08.931Z,99.90
2023-08-07T16:39:36.961Z,99.90
2023-08-07T16:42:05.669Z,99.90
2023-08-07T16:44:33.635Z,99.90
2023-08-07T16:47:01.945Z,99.90
2023-08-07T16:49:29.901Z,99.90
2023-08-07T16:51:59.702Z,99.90
2023-08-07T16:54:29.791Z,99.90
2023-08-07T16:56:58.131Z,99.90
2023-08-07T16:59:26.461Z,99.90
2023-08-07T17:01:54.504Z,99.90
2023-08-07T17:04:22.622Z,99.90
2023-08-07T17:06:50.681Z,99.90
2023-08-07T17:09:20.346Z,99.90
2023-08-07T17:11:49.700Z,99.90
2023-08-07T17:14:17.896Z,99.90
2023-08-07T17:16:45.835Z,99.90
2023-08-07T17:19:14.097Z,99.90
2023-08-07T17:21:42.102Z,99.90
2023-08-07T17:24:10.188Z,99.90
2023-08-07T17:26:38.231Z,99.90
2023-08-07T17:29:07.556Z,99.90
2023-08-07T17:31:36.408Z,99.90
2023-08-07T17:34:05.074Z,99.90
2023-08-07T17:36:33.312Z,99.90
2023-08-07T17:39:02.667Z,99.90
2023-08-07T17:41:30.954Z,99.90
2023-08-07T17:43:59.126Z,99.90
2023-08-07T17:46:28.577Z,99.90
2023-08-07T17:48:56.750Z,99.90
2023-08-07T17:51:25.572Z,99.90
2023-08-07T17:53:53.633Z,99.90
2023-08-07T17:56:22.897Z,99.90
2023-08-07T17:58:51.094Z,99.90
2023-08-07T18:01:20.167Z,99.90
2023-08-07T18:03:49.997Z,99.90
2023-08-07T18:06:18.181Z,99.90
2023-08-07T18:08:46.297Z,99.90
2023-08-07T18:11:14.249Z,99.90
2023-08-07T18:13:42.373Z,99.90
2023-08-07T18:16:10.933Z,99.90
2023-08-07T18:18:38.984Z,99.90
2023-08-07T18:21:08.423Z,99.90
2023-08-07T18:23:36.394Z,99.90
2023-08-07T18:26:04.517Z,99.90
2023-08-07T18:28:32.975Z,99.90
2023-08-07T18:31:01.816Z,99.90
2023-08-07T18:33:29.851Z,99.90
2023-08-07T18:36:01.323Z,99.90
2023-08-07T18:38:30.939Z,99.90
2023-08-07T18:40:59.078Z,99.90
2023-08-07T18:43:27.181Z,99.90
2023-08-07T18:45:55.177Z,99.90
2023-08-07T18:48:23.281Z,99.90
2023-08-07T18:50:51.346Z,99.90
2023-08-07T18:53:19.495Z,99.90
2023-08-07T18:55:49.041Z,99.90
2023-08-07T18:58:16.967Z,99.90
2023-08-07T19:00:45.024Z,99.90
2023-08-07T19:03:13.377Z,99.90
2023-08-07T19:05:42.151Z,99.90
2023-08-07T19:08:10.304Z,99.90
2023-08-07T19:10:38.258Z,99.90
2023-08-07T19:13:07.956Z,99.90
2023-08-07T19:15:36.058Z,99.90
2023-08-07T19:18:05.226Z,99.90
2023-08-07T19:20:33.532Z,99.90
2023-08-07T19:23:02.895Z,99.90
2023-08-07T19:25:31.022Z,99.90
2023-08-07T19:27:59.397Z,99.90
2023-08-07T19:30:31.672Z,99.90
2023-08-07T19:33:00.072Z,99.90
2023-08-07T19:35:28.353Z,99.90
2023-08-07T19:37:56.777Z,99.90
2023-08-07T19:40:25.885Z,99.90
2023-08-07T19:42:54.438Z,99.90
2023-08-07T19:45:22.718Z,99.90
2023-08-07T19:47:52.268Z,99.90
2023-08-07T19:50:20.573Z,99.90
2023-08-07T19:52:48.550Z,99.90
2023-08-07T19:55:18.053Z,99.90
2023-08-07T19:57:46.166Z,99.90
2023-08-07T20:00:15.625Z,99.90
2023-08-07T20:02:43.982Z,99.90
2023-08-07T20:05:13.521Z,99.90
2023-08-07T20:07:41.628Z,99.90
2023-08-07T20:10:12.073Z,99.90
2023-08-07T20:12:41.303Z,99.90
2023-08-07T20:15:10.608Z,99.90
2023-08-07T20:17:38.767Z,99.90
2023-08-07T20:20:08.145Z,99.90
2023-08-07T20:22:37.730Z,99.90
2023-08-07T20:25:06.683Z,99.90
2023-08-07T20:27:34.811Z,99.90
2023-08-07T20:30:05.153Z,99.90
2023-08-07T20:32:33.237Z,99.90
2023-08-07T20:35:01.331Z,99.90
2023-08-07T20:37:29.235Z,99.90
2023-08-07T20:39:58.606Z,99.90
2023-08-07T20:42:27.182Z,99.90
2023-08-07T20:44:55.663Z,99.90
2023-08-07T20:47:23.690Z,99.90
2023-08-07T20:49:51.709Z,99.90
2023-08-07T20:52:19.698Z,99.90
2023-08-07T20:54:47.676Z,99.90
2023-08-07T20:57:17.058Z,99.90
2023-08-07T20:59:45.073Z,99.90
2023-08-07T21:02:13.620Z,99.90
2023-08-07T21:04:41.627Z,99.90
2023-08-07T21:07:09.765Z,99.90
2023-08-07T21:09:37.990Z,99.90
2023-08-07T21:12:06.855Z,99.90
2023-08-07T21:14:36.352Z,99.90
2023-08-07T21:17:04.715Z,99.90
2023-08-07T21:19:33.335Z,99.90
2023-08-07T21:22:01.500Z,99.90
2023-08-07T21:24:29.778Z,99.90
2023-08-07T21:26:57.874Z,99.90
2023-08-07T21:29:26.133Z,99.90
2023-08-07T21:31:55.894Z,99.90
2023-08-07T21:34:24.149Z,99.90
2023-08-07T21:36:52.629Z,99.90
2023-08-07T21:39:20.568Z,99.90
2023-08-07T21:41:48.633Z,99.90
2023-08-07T21:44:17.394Z,99.90
2023-08-07T21:46:45.494Z,99.90
2023-08-07T21:49:14.902Z,99.90
2023-08-07T21:51:43.008Z,99.90
2023-08-07T21:54:10.990Z,99.90
2023-08-07T21:56:43.631Z,99.90
2023-08-07T21:59:12.054Z,99.90
2023-08-07T22:01:40.555Z,99.90
2023-08-07T22:04:08.583Z,99.90
2023-08-07T22:06:38.061Z,99.90
2023-08-07T22:09:06.260Z,99.90
2023-08-07T22:11:34.656Z,99.90
2023-08-07T22:14:03.062Z,99.90
2023-08-07T22:16:31.258Z,99.90
2023-08-07T22:18:59.398Z,99.90
2023-08-07T22:21:27.585Z,99.90
2023-08-07T22:23:56.963Z,99.90
2023-08-07T22:26:26.686Z,99.90
2023-08-07T22:28:54.828Z,99.90
2023-08-07T22:31:22.814Z,99.90
2023-08-07T22:33:50.922Z,99.90
2023-08-07T22:36:18.927Z,99.90
2023-08-07T22:38:47.294Z,99.90
2023-08-07T22:41:17.045Z,99.90
2023-08-07T22:43:45.350Z,99.90
2023-08-07T22:46:13.509Z,99.90
2023-08-07T22:48:41.528Z,99.90
2023-08-07T22:51:10.703Z,99.90
2023-08-07T22:53:38.660Z,99.90
2023-08-07T22:56:06.663Z,99.90
2023-08-07T23:01:27.781Z,99.90
2023-08-07T23:03:55.877Z,99.90
2023-08-07T23:06:23.828Z,99.90
2023-08-07T23:08:51.923Z,99.90
2023-08-07T23:11:20.074Z,99.90
2023-08-07T23:13:49.371Z,99.90
2023-08-07T23:16:17.515Z,99.90
2023-08-07T23:18:45.627Z,99.90
2023-08-07T23:21:13.582Z,99.90
2023-08-07T23:23:41.648Z,99.90
2023-08-07T23:26:09.711Z,99.90
2023-08-07T23:28:37.682Z,99.90
2023-08-07T23:31:07.646Z,99.90
2023-08-07T23:33:35.660Z,99.90
2023-08-07T23:36:03.798Z,99.90
2023-08-07T23:38:31.736Z,99.90
2023-08-07T23:40:59.732Z,99.90
2023-08-07T23:43:27.847Z,99.90
2023-08-07T23:45:55.911Z,99.90
2023-08-07T23:48:25.368Z,99.90
2023-08-07T23:50:54.203Z,99.90
2023-08-07T23:53:22.527Z,99.90
2023-08-07T23:55:50.589Z,99.90
2023-08-07T23:58:19.899Z,99.90
